createdAt,value
2023-04-21T05:03:19.359Z,95389.00
2023-04-21T05:04:19.357Z,95391.00
2023-04-21T05:05:20.118Z,95393.00
2023-04-21T05:06:19.115Z,95393.00
2023-04-21T05:07:20.101Z,95397.00
2023-04-21T05:08:19.086Z,95397.00
2023-04-21T05:09:20.088Z,95397.00
2023-04-21T05:10:20.074Z,95399.00
2023-04-21T05:11:19.066Z,95399.00
2023-04-21T05:12:19.096Z,95401.00
2023-04-21T05:13:20.086Z,95403.00
2023-04-21T05:14:20.344Z,95403.00
2023-04-21T05:15:20.061Z,95403.00
2023-04-21T05:16:20.142Z,95405.00
2023-04-21T05:17:20.041Z,95401.00
2023-04-21T05:18:19.023Z,95403.00
2023-04-21T05:19:19.051Z,95403.00
2023-04-21T05:20:20.032Z,95403.00
2023-04-21T05:21:20.042Z,95403.00
2023-04-21T05:22:19.991Z,95403.00
2023-04-21T05:23:19.027Z,95401.00
2023-04-21T05:24:20.262Z,95403.00
2023-04-21T05:25:19.058Z,95401.00
2023-04-21T05:26:19.085Z,95403.00
2023-04-21T05:27:20.114Z,95401.00
2023-04-21T05:28:20.138Z,95405.00
2023-04-21T05:29:19.161Z,95405.00
2023-04-21T05:30:20.186Z,95403.00
2023-04-21T05:31:20.210Z,95399.00
2023-04-21T05:32:20.529Z,95399.00
2023-04-21T05:33:20.342Z,95401.00
2023-04-21T05:34:20.525Z,95395.00
2023-04-21T05:35:19.320Z,95399.00
2023-04-21T05:36:20.395Z,95399.00
2023-04-21T05:37:20.336Z,95403.00
2023-04-21T05:38:20.346Z,95403.00
2023-04-21T05:39:19.378Z,95407.00
2023-04-21T05:40:20.381Z,95403.00
2023-04-21T05:41:20.397Z,95401.00
2023-04-21T05:42:20.433Z,95399.00
2023-04-21T05:43:19.487Z,95401.00
2023-04-21T05:44:20.600Z,95401.00
2023-04-21T05:45:19.506Z,95397.00
2023-04-21T05:46:20.638Z,95395.00
2023-04-21T05:47:19.501Z,95393.00
2023-04-21T05:48:20.682Z,95395.00
2023-04-21T05:49:20.564Z,95393.00
2023-04-21T05:50:20.602Z,95393.00
2023-04-21T05:51:20.673Z,95395.00
2023-04-21T05:52:20.697Z,95393.00
2023-04-21T05:53:20.796Z,95393.00
2023-04-21T05:54:20.908Z,95401.00
2023-04-21T05:55:19.821Z,95397.00
2023-04-21T05:56:19.853Z,95401.00
2023-04-21T05:57:19.881Z,95401.00
2023-04-21T05:58:20.915Z,95401.00
2023-04-21T05:59:20.939Z,95397.00
2023-04-21T06:00:20.973Z,95397.00
2023-04-21T06:01:21.121Z,95397.00
2023-04-21T06:02:21.208Z,95391.00
2023-04-21T06:03:20.252Z,95393.00
2023-04-21T06:04:21.906Z,95395.00
2023-04-21T06:05:21.167Z,95393.00
2023-04-21T06:06:21.170Z,95395.00
2023-04-21T06:07:21.238Z,95393.00
2023-04-21T06:08:20.257Z,95393.00
2023-04-21T06:09:21.340Z,95393.00
2023-04-21T06:10:21.359Z,95393.00
2023-04-21T06:11:20.389Z,95399.00
2023-04-21T06:12:21.445Z,95399.00
2023-04-21T06:13:20.479Z,95401.00
2023-04-21T06:14:20.617Z,95401.00
2023-04-21T06:15:21.467Z,95403.00
2023-04-21T06:16:21.530Z,95401.00
2023-04-21T06:17:21.536Z,95399.00
2023-04-21T06:18:21.544Z,95397.00
2023-04-21T06:19:21.562Z,95401.00
2023-04-21T06:20:20.580Z,95399.00
2023-04-21T06:21:20.625Z,95401.00
2023-04-21T06:22:21.647Z,95397.00
2023-04-21T06:23:21.702Z,95395.00
2023-04-21T06:24:21.864Z,95391.00
2023-04-21T06:25:20.784Z,95393.00
2023-04-21T06:26:20.811Z,95393.00
2023-04-21T06:27:21.857Z,95391.00
2023-04-21T06:28:21.885Z,95395.00
2023-04-21T06:29:21.920Z,95399.00
2023-04-21T06:30:22.003Z,95395.00
2023-04-21T06:31:22.083Z,95403.00
2023-04-21T06:32:21.066Z,95407.00
2023-04-21T06:33:22.073Z,95403.00
2023-04-21T06:34:22.490Z,95403.00
2023-04-21T06:35:21.133Z,95403.00
2023-04-21T06:36:21.190Z,95399.00
2023-04-21T06:37:22.227Z,95397.00
2023-04-21T06:38:21.233Z,95397.00
2023-04-21T06:39:21.308Z,95393.00
2023-04-21T06:40:22.313Z,95391.00
2023-04-21T06:41:22.867Z,95389.00
2023-04-21T06:42:21.310Z,95387.00
2023-04-21T06:43:21.287Z,95387.00
2023-04-21T06:44:21.525Z,95391.00
2023-04-21T06:45:21.292Z,95389.00
2023-04-21T06:46:21.327Z,95389.00
2023-04-21T06:47:22.406Z,95391.00
2023-04-21T06:48:22.265Z,95393.00
2023-04-21T06:49:21.610Z,95393.00
2023-04-21T06:50:22.254Z,95393.00
2023-04-21T06:51:22.280Z,95393.00
2023-04-21T06:52:22.235Z,95395.00
2023-04-21T06:53:22.231Z,95397.00
2023-04-21T06:54:22.243Z,95397.00
2023-04-21T06:55:21.234Z,95399.00
2023-04-21T06:56:22.651Z,95397.00
2023-04-21T06:57:21.210Z,95397.00
2023-04-21T06:58:22.201Z,95399.00
2023-04-21T06:59:22.424Z,95399.00
2023-04-21T07:00:21.173Z,95397.00
2023-04-21T07:01:22.245Z,95397.00
2023-04-21T07:02:21.216Z,95399.00
2023-04-21T07:03:22.350Z,95399.00
2023-04-21T07:04:21.178Z,95395.00
2023-04-21T07:05:22.158Z,95395.00
2023-04-21T07:06:22.151Z,95393.00
2023-04-21T07:07:22.135Z,95395.00
2023-04-21T07:08:21.139Z,95393.00
2023-04-21T07:09:22.264Z,95397.00
2023-04-21T07:10:21.118Z,95393.00
2023-04-21T07:11:21.145Z,95393.00
2023-04-21T07:12:22.118Z,95393.00
2023-04-21T07:13:21.099Z,95389.00
2023-04-21T07:14:21.102Z,95391.00
2023-04-21T07:15:22.099Z,95391.00
2023-04-21T07:16:22.143Z,95389.00
2023-04-21T07:17:22.079Z,95391.00
2023-04-21T07:18:22.078Z,95391.00
2023-04-21T07:19:21.285Z,95391.00
2023-04-21T07:20:21.067Z,95393.00
2023-04-21T07:21:21.052Z,95393.00
2023-04-21T07:22:21.063Z,95395.00
2023-04-21T07:23:21.027Z,95395.00
2023-04-21T07:24:22.060Z,95393.00
2023-04-21T07:25:21.024Z,95389.00
2023-04-21T07:26:22.055Z,95389.00
2023-04-21T07:27:22.146Z,95389.00
2023-04-21T07:28:22.138Z,95391.00
2023-04-21T07:29:22.192Z,95387.00
2023-04-21T07:30:22.234Z,95391.00
2023-04-21T07:31:22.352Z,95389.00
2023-04-21T07:32:22.423Z,95389.00
2023-04-21T07:33:22.382Z,95387.00
2023-04-21T07:34:22.425Z,95389.00
2023-04-21T07:35:21.450Z,95385.00
2023-04-21T07:36:22.633Z,95385.00
2023-04-21T07:37:23.927Z,95383.00
2023-04-21T07:38:22.531Z,95387.00
2023-04-21T07:39:22.727Z,95385.00
2023-04-21T07:40:22.498Z,95383.00
2023-04-21T07:41:22.562Z,95380.00
2023-04-21T07:42:22.576Z,95380.00
2023-04-21T07:43:22.502Z,95383.00
2023-04-21T07:44:22.490Z,95382.00
2023-04-21T07:45:22.485Z,95380.00
2023-04-21T07:46:22.482Z,95382.00
2023-04-21T07:47:22.665Z,95382.00
2023-04-21T07:48:22.444Z,95387.00
2023-04-21T07:49:21.667Z,95385.00
2023-04-21T07:50:21.441Z,95383.00
2023-04-21T07:51:21.473Z,95385.00
2023-04-21T07:52:22.662Z,95382.00
2023-04-21T07:53:21.401Z,95383.00
2023-04-21T07:54:22.400Z,95387.00
2023-04-21T07:55:22.409Z,95385.00
2023-04-21T07:56:22.387Z,95385.00
2023-04-21T07:57:22.384Z,95385.00
2023-04-21T07:58:22.370Z,95385.00
2023-04-21T07:59:22.404Z,95385.00
2023-04-21T08:00:22.377Z,95387.00
2023-04-21T08:01:22.353Z,95385.00
2023-04-21T08:02:22.469Z,95387.00
2023-04-21T08:03:24.366Z,95385.00
2023-04-21T08:04:22.606Z,95387.00
2023-04-21T08:05:22.401Z,95385.00
2023-04-21T08:06:22.366Z,95389.00
2023-04-21T08:07:21.353Z,95391.00
2023-04-21T08:08:22.348Z,95395.00
2023-04-21T08:09:21.537Z,95395.00
2023-04-21T08:10:21.292Z,95397.00
2023-04-21T08:11:21.300Z,95397.00
2023-04-21T08:12:22.297Z,95397.00
2023-04-21T08:13:21.283Z,95393.00
2023-04-21T08:14:22.389Z,95393.00
2023-04-21T08:15:22.324Z,95387.00
2023-04-21T08:16:22.338Z,95391.00
2023-04-21T08:17:22.316Z,95385.00
2023-04-21T08:18:22.772Z,95389.00
2023-04-21T08:19:22.438Z,95389.00
2023-04-21T08:20:22.219Z,95387.00
2023-04-21T08:21:22.223Z,95389.00
2023-04-21T08:22:21.256Z,95389.00
2023-04-21T08:23:22.261Z,95385.00
2023-04-21T08:24:22.460Z,95383.00
2023-04-21T08:25:22.207Z,95383.00
2023-04-21T08:26:22.230Z,95383.00
2023-04-21T08:27:21.208Z,95383.00
2023-04-21T08:28:22.171Z,95380.00
2023-04-21T08:29:22.169Z,95380.00
2023-04-21T08:30:22.221Z,95376.00
2023-04-21T08:31:22.379Z,95382.00
2023-04-21T08:32:22.298Z,95376.00
2023-04-21T08:33:22.348Z,95376.00
2023-04-21T08:34:22.108Z,95372.00
2023-04-21T08:35:21.304Z,95374.00
2023-04-21T08:36:28.890Z,95376.00
2023-04-21T08:37:22.365Z,95374.00
2023-04-21T08:38:22.292Z,95372.00
2023-04-21T08:39:21.597Z,95372.00
2023-04-21T08:40:22.348Z,95376.00
2023-04-21T08:41:22.294Z,95370.00
2023-04-21T08:42:21.706Z,95372.00
2023-04-21T08:43:22.275Z,95370.00
2023-04-21T08:44:22.374Z,95366.00
2023-04-21T08:45:21.254Z,95366.00
2023-04-21T08:46:21.328Z,95366.00
2023-04-21T08:47:22.308Z,95362.00
2023-04-21T08:48:22.240Z,95358.00
2023-04-21T08:49:22.397Z,95356.00
2023-04-21T08:50:21.248Z,95356.00
2023-04-21T08:51:22.231Z,95354.00
2023-04-21T08:52:21.709Z,95350.00
2023-04-21T08:53:22.194Z,95350.00
2023-04-21T08:54:21.186Z,95350.00
2023-04-21T08:55:22.182Z,95346.00
2023-04-21T08:56:22.206Z,95348.00
2023-04-21T08:57:22.699Z,95350.00
2023-04-21T08:58:22.255Z,95348.00
2023-04-21T08:59:22.521Z,95354.00
2023-04-21T09:00:22.383Z,95352.00
2023-04-21T09:01:22.477Z,95356.00
2023-04-21T09:02:22.589Z,95358.00
2023-04-21T09:03:25.977Z,95354.00
2023-04-21T09:04:22.605Z,95354.00
2023-04-21T09:05:21.619Z,95348.00
2023-04-21T09:06:22.667Z,95350.00
2023-04-21T09:07:21.393Z,95350.00
2023-04-21T09:08:22.370Z,95352.00
2023-04-21T09:09:22.447Z,95350.00
2023-04-21T09:10:21.366Z,95348.00
2023-04-21T09:11:22.354Z,95348.00
2023-04-21T09:12:22.349Z,95348.00
2023-04-21T09:13:22.358Z,95350.00
2023-04-21T09:14:21.331Z,95352.00
2023-04-21T09:15:22.377Z,95352.00
2023-04-21T09:16:21.991Z,95350.00
2023-04-21T09:17:22.752Z,95346.00
2023-04-21T09:18:22.416Z,95346.00
2023-04-21T09:19:22.584Z,95348.00
2023-04-21T09:20:21.492Z,95348.00
2023-04-21T09:21:22.456Z,95344.00
2023-04-21T09:22:22.490Z,95346.00
2023-04-21T09:23:21.515Z,95346.00
2023-04-21T09:24:21.520Z,95344.00
2023-04-21T09:25:21.559Z,95344.00
2023-04-21T09:26:22.583Z,95344.00
2023-04-21T09:27:21.612Z,95348.00
2023-04-21T09:28:21.634Z,95344.00
2023-04-21T09:29:22.659Z,95344.00
2023-04-21T09:30:22.731Z,95340.00
2023-04-21T09:31:22.737Z,95344.00
2023-04-21T09:32:22.817Z,95342.00
2023-04-21T09:33:29.571Z,95344.00
2023-04-21T09:34:22.838Z,95340.00
2023-04-21T09:35:21.833Z,95342.00
2023-04-21T09:36:21.795Z,95340.00
2023-04-21T09:37:22.732Z,95338.00
2023-04-21T09:38:21.746Z,95340.00
2023-04-21T09:39:40.121Z,95336.00
2023-04-21T09:40:22.746Z,95338.00
2023-04-21T09:41:21.715Z,95338.00
2023-04-21T09:42:22.708Z,95340.00
2023-04-21T09:43:21.700Z,95338.00
2023-04-21T09:44:23.734Z,95336.00
2023-04-21T09:45:39.115Z,95336.00
2023-04-21T09:46:22.743Z,95336.00
2023-04-21T09:47:22.747Z,95340.00
2023-04-21T09:48:22.785Z,95340.00
2023-04-21T09:49:22.659Z,95340.00
2023-04-21T09:50:41.858Z,95336.00
2023-04-21T09:51:35.244Z,95336.00
2023-04-21T09:52:22.726Z,95336.00
2023-04-21T09:53:21.653Z,95340.00
2023-04-21T09:55:21.626Z,95334.00
2023-04-21T09:56:22.620Z,95334.00
2023-04-21T09:57:21.639Z,95330.00
2023-04-21T09:58:21.585Z,95332.00
2023-04-21T09:59:23.717Z,95332.00
2023-04-21T10:00:22.578Z,95332.00
2023-04-21T10:01:21.616Z,95328.00
2023-04-21T10:02:21.938Z,95328.00
2023-04-21T10:03:22.686Z,95325.00
2023-04-21T10:04:23.081Z,95323.00
2023-04-21T10:05:21.604Z,95321.00
2023-04-21T10:06:21.626Z,95319.00
2023-04-21T10:07:22.716Z,95319.00
2023-04-21T10:08:22.718Z,95323.00
2023-04-21T10:09:22.754Z,95319.00
2023-04-21T10:10:22.796Z,95317.00
2023-04-21T10:11:22.837Z,95317.00
2023-04-21T10:12:21.885Z,95315.00
2023-04-21T10:13:21.946Z,95315.00
2023-04-21T10:14:22.212Z,95311.00
2023-04-21T10:15:23.022Z,95311.00
2023-04-21T10:16:23.081Z,95311.00
2023-04-21T10:17:23.126Z,95309.00
2023-04-21T10:18:22.154Z,95307.00
2023-04-21T10:19:22.189Z,95305.00
2023-04-21T10:20:22.219Z,95303.00
2023-04-21T10:21:23.243Z,95303.00
2023-04-21T10:22:23.260Z,95305.00
2023-04-21T10:23:23.300Z,95301.00
2023-04-21T10:24:22.443Z,95299.00
2023-04-21T10:25:22.311Z,95295.00
2023-04-21T10:26:23.307Z,95297.00
2023-04-21T10:27:22.353Z,95295.00
2023-04-21T10:28:22.403Z,95293.00
2023-04-21T10:29:23.471Z,95293.00
2023-04-21T10:30:23.497Z,95293.00
2023-04-21T10:31:23.558Z,95291.00
2023-04-21T10:32:23.569Z,95289.00
2023-04-21T10:33:22.592Z,95289.00
2023-04-21T10:34:23.049Z,95289.00
2023-04-21T10:35:22.767Z,95287.00
2023-04-21T10:36:23.765Z,95285.00
2023-04-21T10:37:23.813Z,95285.00
2023-04-21T10:38:23.844Z,95285.00
2023-04-21T10:39:22.828Z,95285.00
2023-04-21T10:40:36.418Z,95285.00
2023-04-21T10:41:23.796Z,95283.00
2023-04-21T10:42:23.805Z,95281.00
2023-04-21T10:43:24.265Z,95285.00
2023-04-21T10:44:23.787Z,95280.00
2023-04-21T10:45:22.771Z,95283.00
2023-04-21T10:46:23.817Z,95281.00
2023-04-21T10:47:23.777Z,95285.00
2023-04-21T10:48:23.788Z,95281.00
2023-04-21T10:49:23.748Z,95283.00
2023-04-21T10:50:23.729Z,95281.00
2023-04-21T10:51:22.721Z,95280.00
2023-04-21T10:52:23.736Z,95276.00
2023-04-21T10:53:23.748Z,95274.00
2023-04-21T10:54:23.722Z,95278.00
2023-04-21T10:55:23.799Z,95278.00
2023-04-21T10:56:22.715Z,95274.00
2023-04-21T10:57:23.689Z,95272.00
2023-04-21T10:58:23.695Z,95272.00
2023-04-21T10:59:22.689Z,95270.00
2023-04-21T11:00:23.713Z,95266.00
2023-04-21T11:01:23.707Z,95264.00
2023-04-21T11:02:23.969Z,95258.00
2023-04-21T11:03:23.766Z,95262.00
2023-04-21T11:04:23.695Z,95262.00
2023-04-21T11:05:22.651Z,95260.00
2023-04-21T11:06:22.659Z,95256.00
2023-04-21T11:07:23.676Z,95260.00
2023-04-21T11:08:22.618Z,95258.00
2023-04-21T11:09:23.619Z,95258.00
2023-04-21T11:10:23.622Z,95256.00
2023-04-21T11:11:23.637Z,95254.00
2023-04-21T11:12:23.656Z,95256.00
2023-04-21T11:13:23.754Z,95254.00
2023-04-21T11:14:23.774Z,95254.00
2023-04-21T11:15:23.830Z,95250.00
2023-04-21T11:16:22.922Z,95250.00
2023-04-21T11:17:23.979Z,95248.00
2023-04-21T11:18:22.965Z,95252.00
2023-04-21T11:19:23.978Z,95248.00
2023-04-21T11:20:22.998Z,95244.00
2023-04-21T11:21:24.028Z,95246.00
2023-04-21T11:22:23.085Z,95242.00
2023-04-21T11:23:23.164Z,95242.00
2023-04-21T11:24:23.147Z,95238.00
2023-04-21T11:25:23.176Z,95238.00
2023-04-21T11:26:23.198Z,95236.00
2023-04-21T11:27:24.233Z,95236.00
2023-04-21T11:28:24.282Z,95234.00
2023-04-21T11:29:24.230Z,95234.00
2023-04-21T11:30:23.284Z,95231.00
2023-04-21T11:31:23.367Z,95231.00
2023-04-21T11:32:23.367Z,95231.00
2023-04-21T11:33:24.422Z,95231.00
2023-04-21T11:34:23.459Z,95227.00
2023-04-21T11:35:24.513Z,95229.00
2023-04-21T11:36:24.549Z,95229.00
2023-04-21T11:37:24.606Z,95227.00
2023-04-21T11:38:24.769Z,95227.00
2023-04-21T11:39:24.670Z,95227.00
2023-04-21T11:40:23.735Z,95229.00
2023-04-21T11:41:24.779Z,95227.00
2023-04-21T11:42:23.832Z,95229.00
2023-04-21T11:43:24.954Z,95223.00
2023-04-21T11:44:23.910Z,95225.00
2023-04-21T11:45:24.954Z,95223.00
2023-04-21T11:46:25.080Z,95223.00
2023-04-21T11:47:24.074Z,95221.00
2023-04-21T11:48:24.098Z,95219.00
2023-04-21T11:49:25.119Z,95217.00
2023-04-21T11:50:24.133Z,95215.00
2023-04-21T11:51:24.169Z,95217.00
2023-04-21T11:52:25.214Z,95215.00
2023-04-21T11:53:24.262Z,95213.00
2023-04-21T11:54:25.255Z,95211.00
2023-04-21T11:55:25.301Z,95211.00
2023-04-21T11:56:25.326Z,95211.00
2023-04-21T11:57:24.381Z,95209.00
2023-04-21T11:58:25.418Z,95207.00
2023-04-21T11:59:26.059Z,95207.00
2023-04-21T12:00:25.486Z,95201.00
2023-04-21T12:01:25.579Z,95203.00
2023-04-21T12:02:25.769Z,95203.00
2023-04-21T12:03:24.734Z,95201.00
2023-04-21T12:04:24.814Z,95203.00
2023-04-21T12:05:25.837Z,95199.00
2023-04-21T12:06:24.906Z,95201.00
2023-04-21T12:07:25.795Z,95199.00
2023-04-21T12:08:24.836Z,95197.00
2023-04-21T12:09:24.874Z,95201.00
2023-04-21T12:10:25.906Z,95199.00
2023-04-21T12:11:24.947Z,95197.00
2023-04-21T12:12:25.002Z,95197.00
2023-04-21T12:13:25.012Z,95195.00
2023-04-21T12:14:26.034Z,95199.00
2023-04-21T12:15:25.087Z,95197.00
2023-04-21T12:16:26.139Z,95199.00
2023-04-21T12:17:26.170Z,95195.00
2023-04-21T12:18:25.161Z,95197.00
2023-04-21T12:19:26.195Z,95201.00
2023-04-21T12:20:26.220Z,95201.00
2023-04-21T12:21:25.262Z,95197.00
2023-04-21T12:22:26.301Z,95197.00
2023-04-21T12:23:26.316Z,95199.00
2023-04-21T12:24:26.389Z,95195.00
2023-04-21T12:25:25.420Z,95199.00
2023-04-21T12:26:26.482Z,95201.00
2023-04-21T12:27:26.541Z,95195.00
2023-04-21T12:28:25.526Z,95197.00
2023-04-21T12:29:25.553Z,95197.00
2023-04-21T12:30:25.570Z,95197.00
2023-04-21T12:31:25.602Z,95197.00
2023-04-21T12:32:25.625Z,95193.00
2023-04-21T12:33:25.739Z,95191.00
2023-04-21T12:34:26.619Z,95193.00
2023-04-21T12:35:26.630Z,95187.00
2023-04-21T12:36:25.630Z,95193.00
2023-04-21T12:37:26.640Z,95191.00
2023-04-21T12:38:25.786Z,95191.00
2023-04-21T12:39:25.686Z,95191.00
2023-04-21T12:40:25.697Z,95189.00
2023-04-21T12:41:26.755Z,95186.00
2023-04-21T12:42:25.828Z,95186.00
2023-04-21T12:43:25.831Z,95184.00
2023-04-21T12:44:25.867Z,95186.00
2023-04-21T12:45:26.948Z,95182.00
2023-04-21T12:46:27.036Z,95186.00
2023-04-21T12:47:25.981Z,95184.00
2023-04-21T12:48:26.980Z,95180.00
2023-04-21T12:49:27.068Z,95182.00
2023-04-21T12:50:27.064Z,95184.00
2023-04-21T12:51:26.085Z,95178.00
2023-04-21T12:52:27.109Z,95178.00
2023-04-21T12:53:26.121Z,95178.00
2023-04-21T12:54:26.153Z,95176.00
2023-04-21T12:55:26.235Z,95176.00
2023-04-21T12:56:27.250Z,95174.00
2023-04-21T12:57:27.298Z,95174.00
2023-04-21T12:58:26.305Z,95174.00
2023-04-21T12:59:27.379Z,95170.00
2023-04-21T13:00:27.313Z,95174.00
2023-04-21T13:01:27.570Z,95170.00
2023-04-21T13:02:26.476Z,95174.00
2023-04-21T13:03:27.577Z,95172.00
2023-04-21T13:04:26.701Z,95170.00
2023-04-21T13:05:27.453Z,95174.00
2023-04-21T13:06:27.478Z,95172.00
2023-04-21T13:07:27.490Z,95174.00
2023-04-21T13:08:26.530Z,95168.00
2023-04-21T13:09:26.533Z,95170.00
2023-04-21T13:10:26.519Z,95168.00
2023-04-21T13:11:27.562Z,95170.00
2023-04-21T13:12:26.594Z,95170.00
2023-04-21T13:13:27.648Z,95168.00
2023-04-21T13:14:26.657Z,95168.00
2023-04-21T13:15:26.677Z,95164.00
2023-04-21T13:16:30.084Z,95156.00
2023-04-21T13:17:26.732Z,95166.00
2023-04-21T13:18:27.731Z,95164.00
2023-04-21T13:19:26.821Z,95156.00
2023-04-21T13:20:26.769Z,95166.00
2023-04-21T13:21:27.709Z,95164.00
2023-04-21T13:22:26.702Z,95156.00
2023-04-21T13:23:26.720Z,95154.00
2023-04-21T13:24:26.704Z,95154.00
2023-04-21T13:25:27.685Z,95152.00
2023-04-21T13:26:27.662Z,95152.00
2023-04-21T13:27:26.666Z,95148.00
2023-04-21T13:28:27.663Z,95152.00
2023-04-21T13:29:26.641Z,95148.00
2023-04-21T13:30:27.651Z,95148.00
2023-04-21T13:31:27.672Z,95144.00
2023-04-21T13:32:26.646Z,95148.00
2023-04-21T13:33:27.649Z,95142.00
2023-04-21T13:34:27.610Z,95141.00
2023-04-21T13:35:27.640Z,95142.00
2023-04-21T13:36:27.611Z,95141.00
2023-04-21T13:37:27.609Z,95139.00
2023-04-21T13:38:27.855Z,95142.00
2023-04-21T13:39:27.588Z,95139.00
2023-04-21T13:40:27.575Z,95141.00
2023-04-21T13:41:26.559Z,95137.00
2023-04-21T13:42:27.578Z,95137.00
2023-04-21T13:43:27.578Z,95135.00
2023-04-21T13:44:26.574Z,95137.00
2023-04-21T13:45:26.616Z,95137.00
2023-04-21T13:46:27.580Z,95137.00
2023-04-21T13:47:26.569Z,95135.00
2023-04-21T13:48:26.831Z,95139.00
2023-04-21T13:49:26.524Z,95139.00
2023-04-21T13:50:27.518Z,95131.00
2023-04-21T13:51:27.542Z,95131.00
2023-04-21T13:52:27.526Z,95135.00
2023-04-21T13:53:27.855Z,95135.00
2023-04-21T13:54:27.915Z,95135.00
2023-04-21T13:55:26.556Z,95131.00
2023-04-21T13:56:27.583Z,95131.00
2023-04-21T13:57:27.676Z,95127.00
2023-04-21T13:58:27.854Z,95125.00
2023-04-21T13:59:27.756Z,95127.00
2023-04-21T14:00:26.778Z,95123.00
2023-04-21T14:01:27.846Z,95123.00
2023-04-21T14:02:27.063Z,95123.00
2023-04-21T14:03:26.977Z,95123.00
2023-04-21T14:04:28.035Z,95117.00
2023-04-21T14:05:27.027Z,95117.00
2023-04-21T14:06:27.933Z,95117.00
2023-04-21T14:07:27.963Z,95113.00
2023-04-21T14:08:27.982Z,95115.00
2023-04-21T14:09:28.032Z,95113.00
2023-04-21T14:10:27.075Z,95115.00
2023-04-21T14:11:28.120Z,95113.00
2023-04-21T14:12:28.203Z,95115.00
2023-04-21T14:13:35.608Z,95111.00
2023-04-21T14:14:38.844Z,95107.00
2023-04-21T14:15:28.225Z,95105.00
2023-04-21T14:16:27.308Z,95105.00
2023-04-21T14:17:27.232Z,95105.00
2023-04-21T14:18:27.209Z,95103.00
2023-04-21T14:19:28.213Z,95099.00
2023-04-21T14:20:28.229Z,95103.00
2023-04-21T14:21:28.177Z,95097.00
2023-04-21T14:22:27.187Z,95097.00
2023-04-21T14:23:28.492Z,95094.00
2023-04-21T14:24:27.170Z,95095.00
2023-04-21T14:25:27.156Z,95090.00
2023-04-21T14:26:27.157Z,95094.00
2023-04-21T14:27:28.173Z,95090.00
2023-04-21T14:28:28.132Z,95092.00
2023-04-21T14:29:28.167Z,95088.00
2023-04-21T14:30:27.150Z,95084.00
2023-04-21T14:31:27.132Z,95084.00
2023-04-21T14:32:27.360Z,95084.00
2023-04-21T14:33:27.145Z,95082.00
2023-04-21T14:34:28.136Z,95080.00
2023-04-21T14:35:27.080Z,95076.00
2023-04-21T14:36:27.091Z,95078.00
2023-04-21T14:37:28.175Z,95076.00
2023-04-21T14:38:28.068Z,95074.00
2023-04-21T14:39:27.090Z,95072.00
2023-04-21T14:40:28.050Z,95072.00
2023-04-21T14:41:28.085Z,95074.00
2023-04-21T14:42:27.092Z,95072.00
2023-04-21T14:43:27.045Z,95076.00
2023-04-21T14:44:27.063Z,95074.00
2023-04-21T14:45:27.114Z,95072.00
2023-04-21T14:46:27.065Z,95068.00
2023-04-21T14:47:28.038Z,95072.00
2023-04-21T14:48:27.002Z,95068.00
2023-04-21T14:49:28.025Z,95070.00
2023-04-21T14:50:27.022Z,95066.00
2023-04-21T14:51:27.028Z,95066.00
2023-04-21T14:52:28.120Z,95068.00
2023-04-21T14:53:27.041Z,95068.00
2023-04-21T14:54:28.056Z,95068.00
2023-04-21T14:55:27.097Z,95070.00
2023-04-21T14:56:27.911Z,95062.00
2023-04-21T14:57:28.136Z,95068.00
2023-04-21T14:58:27.137Z,95066.00
2023-04-21T14:59:28.216Z,95066.00
2023-04-21T15:00:28.243Z,95068.00
2023-04-21T15:01:28.286Z,95068.00
2023-04-21T15:02:28.440Z,95064.00
2023-04-21T15:03:27.476Z,95064.00
2023-04-21T15:04:27.538Z,95070.00
2023-04-21T15:05:27.508Z,95066.00
2023-04-21T15:06:27.533Z,95066.00
2023-04-21T15:07:27.541Z,95066.00
2023-04-21T15:08:28.747Z,95064.00
2023-04-21T15:09:28.679Z,95062.00
2023-04-21T15:10:27.685Z,95064.00
2023-04-21T15:11:28.725Z,95068.00
2023-04-21T15:12:28.738Z,95062.00
2023-04-21T15:13:27.784Z,95058.00
2023-04-21T15:14:28.793Z,95060.00
2023-04-21T15:15:28.809Z,95056.00
2023-04-21T15:16:27.874Z,95060.00
2023-04-21T15:17:27.920Z,95060.00
2023-04-21T15:18:28.911Z,95060.00
2023-04-21T15:19:28.926Z,95062.00
2023-04-21T15:20:42.988Z,95062.00
2023-04-21T15:21:28.967Z,95072.00
2023-04-21T15:22:28.955Z,95060.00
2023-04-21T15:23:28.953Z,95060.00
2023-04-21T15:24:27.944Z,95058.00
2023-04-21T15:25:28.919Z,95050.00
2023-04-21T15:26:28.905Z,95060.00
2023-04-21T15:27:28.934Z,95054.00
2023-04-21T15:28:28.902Z,95060.00
2023-04-21T15:29:29.084Z,95062.00
2023-04-21T16:03:13.451Z,95058.00
2023-04-21T16:04:13.371Z,95056.00
2023-04-21T16:05:13.256Z,95060.00
2023-04-21T16:06:14.242Z,95052.00
2023-04-21T16:07:14.150Z,95054.00
2023-04-21T16:08:13.116Z,95058.00
2023-04-21T16:09:14.132Z,95064.00
2023-04-21T16:10:14.133Z,95062.00
2023-04-21T16:11:14.148Z,95064.00
2023-04-21T16:12:14.155Z,95060.00
2023-04-21T16:13:13.094Z,95062.00
2023-04-21T16:14:13.143Z,95056.00
2023-04-21T16:15:23.894Z,95062.00
2023-04-21T16:16:14.177Z,95056.00
2023-04-21T16:17:13.134Z,95052.00
2023-04-21T16:18:14.141Z,95056.00
2023-04-21T16:19:13.083Z,95054.00
2023-04-21T16:20:13.582Z,95054.00
2023-04-21T16:21:13.095Z,95060.00
2023-04-21T16:22:13.070Z,95058.00
2023-04-21T16:23:13.011Z,95060.00
2023-04-21T16:24:14.089Z,95054.00
2023-04-21T16:25:13.021Z,95064.00
2023-04-21T16:26:14.048Z,95064.00
2023-04-21T16:27:14.006Z,95062.00
2023-04-21T16:28:14.001Z,95064.00
2023-04-21T16:29:13.991Z,95064.00
2023-04-21T16:30:14.057Z,95062.00
2023-04-21T16:31:14.156Z,95066.00
2023-04-21T16:32:14.228Z,95064.00
2023-04-21T16:33:14.132Z,95068.00
2023-04-21T16:34:14.234Z,95068.00
2023-04-21T16:35:13.318Z,95076.00
2023-04-21T16:36:14.374Z,95074.00
2023-04-21T16:37:13.296Z,95076.00
2023-04-21T16:38:13.308Z,95074.00
2023-04-21T16:39:13.241Z,95076.00
2023-04-21T16:40:14.339Z,95074.00
2023-04-21T16:41:14.592Z,95076.00
2023-04-21T16:42:14.356Z,95068.00
2023-04-21T16:43:14.311Z,95066.00
2023-04-21T16:44:14.345Z,95066.00
2023-04-21T16:45:13.386Z,95070.00
2023-04-21T16:46:14.530Z,95072.00
2023-04-21T16:47:13.444Z,95070.00
2023-04-21T16:48:14.660Z,95068.00
2023-04-21T16:49:14.474Z,95066.00
2023-04-21T16:50:13.548Z,95068.00
2023-04-21T16:51:13.616Z,95068.00
2023-04-21T16:52:13.603Z,95066.00
2023-04-21T16:53:13.572Z,95070.00
2023-04-21T16:54:14.638Z,95066.00
2023-04-21T16:55:13.698Z,95064.00
2023-04-21T16:56:14.712Z,95068.00
2023-04-21T16:57:14.739Z,95068.00
2023-04-21T16:58:14.717Z,95068.00
2023-04-21T16:59:13.792Z,95066.00
2023-04-21T17:00:14.997Z,95064.00
2023-04-21T17:01:13.837Z,95070.00
2023-04-21T17:02:13.956Z,95066.00
2023-04-21T17:03:14.042Z,95062.00
2023-04-21T17:04:14.043Z,95066.00
2023-04-21T17:05:13.940Z,95066.00
2023-04-21T17:06:15.010Z,95066.00
2023-04-21T17:07:15.065Z,95066.00
2023-04-21T17:08:15.061Z,95066.00
2023-04-21T17:09:14.065Z,95066.00
2023-04-21T17:10:15.053Z,95062.00
2023-04-21T17:11:15.067Z,95060.00
2023-04-21T17:12:14.089Z,95058.00
2023-04-21T17:13:15.085Z,95060.00
2023-04-21T17:14:15.107Z,95058.00
2023-04-21T17:15:15.139Z,95054.00
2023-04-21T17:16:15.230Z,95056.00
2023-04-21T17:17:15.232Z,95060.00
2023-04-21T17:18:15.297Z,95058.00
2023-04-21T17:19:15.287Z,95062.00
2023-04-21T17:20:15.337Z,95062.00
2023-04-21T17:21:15.332Z,95058.00